Home > Products > Valid Products > TAF

000
FTUS45 KTWC 211100
TAFOLS
TAF
KOLS 211130Z 2112/2212 VRB03KT P6SM BKN250
     FM212000 30006KT P6SM BKN250
     FM220200 VRB03KT P6SM BKN250=



000
FTUS45 KTWC 211100
TAFTUS
TAF
KTUS 211130Z 2112/2212 14007KT P6SM BKN300
     FM211700 VRB03KT P6SM BKN300
     FM212100 33006KT P6SM BKN300
     FM220300 VRB03KT P6SM BKN300
     FM220800 15006KT P6SM SCT300=



000
FTUS45 KTWC 211100
TAFDUG
TAF
KDUG 211130Z 2112/2212 01008KT P6SM BKN250
     FM211900 31007KT P6SM BKN250
     FM220600 01007KT P6SM BKN250=



000
FTUS45 KTWC 211100
TAFOLS
TAF
KOLS 211130Z 2112/2212 VRB03KT P6SM BKN250
     FM212000 30006KT P6SM BKN250
     FM220200 VRB03KT P6SM BKN250=



000
FTUS45 KTWC 210500
TAFTUS
TAF
KTUS 210520Z 2106/2206 15005KT P6SM BKN200
     FM212000 33006KT P6SM BKN200=



000
FTUS45 KTWC 210500
TAFOLS
TAF
KOLS 210520Z 2106/2206 VRB03KT P6SM BKN200
     FM211900 30005KT P6SM BKN200=



000
FTUS45 KTWC 210500
TAFOLS
TAF
KOLS 210520Z 2106/2206 VRB03KT P6SM BKN200
     FM211900 30005KT P6SM BKN200=



000
FTUS45 KTWC 210500
TAFDUG
TAF
KDUG 210520Z 2106/2206 VRB03KT P6SM BKN200
     FM211900 31005KT P6SM BKN200=



000
FTUS45 KTWC 202300
TAFDUG
TAF
KDUG 202324Z 2100/2124 VRB04KT P6SM BKN200=



000
FTUS45 KTWC 202300
TAFOLS
TAF
KOLS 202324Z 2100/2124 VRB04KT P6SM BKN200=



000
FTUS45 KTWC 202300
TAFTUS
TAF
KTUS 202324Z 2100/2124 35006KT P6SM BKN200
     FM210800 15005KT P6SM BKN250=



000
FTUS45 KTWC 201700
TAFTUS
TAF
KTUS 201731Z 2018/2118 14006KT P6SM SCT250
     FM202100 34006KT P6SM BKN250
     FM210200 VRB03KT P6SM BKN250
     FM210800 15005KT P6SM BKN250=



000
FTUS45 KTWC 201700
TAFOLS
TAF
KOLS 201731Z 2018/2118 VRB03KT P6SM SCT250
     FM202100 33006KT P6SM BKN250
     FM210200 VRB03KT P6SM BKN250=



000
FTUS45 KTWC 201700
TAFDUG
TAF
KDUG 201731Z 2018/2118 28005KT P6SM BKN250
     FM202100 33005KT P6SM SCT250
     FM210200 01004KT P6SM BKN250=



000
FTUS45 KTWC 201100
TAFOLS
TAF
KOLS 201121Z 2012/2112 VRB03KT P6SM SCT250
     FM202100 33006KT P6SM BKN250
     FM210200 VRB03KT P6SM BKN250=



000
FTUS45 KTWC 201100
TAFTUS
TAF
KTUS 201121Z 2012/2112 VRB03KT P6SM SCT250
     FM202100 34006KT P6SM BKN250
     FM210200 VRB03KT P6SM BKN250
     FM210800 15005KT P6SM BKN250=



000
FTUS45 KTWC 201100
TAFOLS
TAF
KOLS 201121Z 2012/2112 VRB03KT P6SM SCT250
     FM202100 33006KT P6SM BKN250
     FM210200 VRB03KT P6SM BKN250=



000
FTUS45 KTWC 201100
TAFDUG
TAF
KDUG 201121Z 2012/2112 28005KT P6SM SCT250
     FM202100 33005KT P6SM SCT250
     FM210200 01004KT P6SM BKN250=



000
FTUS45 KTWC 200500
TAFTUS
TAF
KTUS 200536Z 2006/2106 14006KT P6SM SCT250
     FM201800 VRB03KT P6SM BKN250
     FM202100 34006KT P6SM BKN250
     FM210300 21005KT P6SM BKN250=



000
FTUS45 KTWC 200500
TAFDUG
TAF
KDUG 200536Z 2006/2106 32007KT P6SM SKC
     FM200900 VRB04KT P6SM SCT250
     FM202100 33006KT P6SM BKN250=



000
FTUS45 KTWC 200500
TAFOLS
TAF
KOLS 200536Z 2006/2106 VRB03KT P6SM SCT250
     FM202100 30007KT P6SM BKN250
     FM210200 VRB03KT P6SM BKN250=



000
FTUS45 KTWC 200500
TAFOLS
TAF
KOLS 200536Z 2006/2106 VRB03KT P6SM SCT250
     FM202100 30007KT P6SM BKN250
     FM210200 VRB03KT P6SM BKN250=



000
FTUS45 KTWC 192300
TAFOLS
TAF
KOLS 192330Z 2000/2024 29006KT P6SM SCT250
     FM200300 06003KT P6SM SCT250
     FM201000 VRB03KT P6SM VCFG BKN250
     FM201700 25006KT P6SM SCT250=



000
FTUS45 KTWC 192300
TAFDUG
TAF
KDUG 192330Z 2000/2024 36005KT P6SM SCT250
     FM201000 VRB03KT P6SM VCFG SCT200
     FM201500 VRB03KT P6SM SCT200=



000
FTUS45 KTWC 192300
TAFOLS
TAF
KOLS 192330Z 2000/2024 29006KT P6SM SCT250
     FM200300 06003KT P6SM SCT250
     FM201000 VRB03KT P6SM VCFG BKN250
     FM201700 25006KT P6SM SCT250=



000
FTUS45 KTWC 192300
TAFTUS
TAF
KTUS 192330Z 2000/2024 35005KT P6SM SCT250
     FM200600 14005KT P6SM BKN250
     FM202000 35005KT P6SM SCT250=



000
FTUS45 KTWC 191700
TAFOLS
TAF
KOLS 191732Z 1918/2018 VRB03KT 3SM BR BKN002
     FM191815 VRB03KT P6SM FEW030
     FM192100 35006KT P6SM SCT250
     FM200300 05003KT P6SM SCT250=



000
FTUS45 KTWC 191700
TAFDUG
TAF
KDUG 191732Z 1918/2018 VRB04KT P6SM FEW040
     FM192200 03006KT P6SM SCT250
     FM201000 VRB03KT P6SM VCFG SCT200=



000
FTUS45 KTWC 191700
TAFOLS
TAF
KOLS 191732Z 1918/2018 VRB03KT 3SM BR BKN002
     FM191815 VRB03KT P6SM FEW030
     FM192100 35006KT P6SM SCT250
     FM200300 05003KT P6SM SCT250=



000
FTUS45 KTWC 191700
TAFTUS
TAF
KTUS 191732Z 1918/2018 VRB03KT P6SM FEW050
     FM192200 35006KT P6SM SCT250
     FM200300 14005KT P6SM SCT250=



000
FTUS45 KTWC 191600 AAA
TAFTUS
TAF AMD
KTUS 191613Z 1916/2012 16003KT P6SM VCFG SKC
     FM191800 VRB03KT P6SM SKC
     FM192000 35006KT P6SM SKC
     FM200300 15005KT P6SM SCT250=



000
FTUS45 KTWC 191600 AAC
TAFDUG
TAF AMD
KDUG 191609Z 1916/2012 VRB03KT P6SM VCFG FEW002
     FM191800 04005KT P6SM FEW030
     FM200200 03004KT P6SM SKC=



000
FTUS45 KTWC 191600 AAC
TAFDUG
TAF AMD
KDUG 191609Z 1916/2012 VRB03KT P6SM VCFG FEW002
     FM191800 04005KT P6SM FEW030
     FM200200 03004KT P6SM SKC=



000
FTUS45 KTWC 191600 AAB
TAFOLS
TAF AMD
KOLS 191607Z 1916/2012 VRB03KT P6SM VCFG FEW004
      TEMPO 1916/1917 1/4SM FG OVC001
     FM191800 VRB03KT P6SM SKC
     FM192000 02008KT P6SM FEW250
     FM200200 05003KT P6SM SCT250=



000
FTUS45 KTWC 191600 AAB
TAFOLS
TAF AMD
KOLS 191607Z 1916/2012 VRB03KT P6SM VCFG FEW004
      TEMPO 1916/1917 1/4SM FG OVC001
     FM191800 VRB03KT P6SM SKC
     FM192000 02008KT P6SM FEW250
     FM200200 05003KT P6SM SCT250=



000
FTUS45 KTWC 191600 AAB
TAFOLS
TAF AMD
KOLS 191607Z 1916/2012 VRB03KT P6SM VCFG FEW004
      TEMPO 1916/1917 1/4SM FG OVC001
     FM191800 VRB03KT P6SM SKC
     FM192000 02008KT P6SM FEW250
     FM200200 05003KT P6SM SCT250=



000
FTUS45 KTWC 191600 AAB
TAFOLS
TAF AMD
KOLS 191607Z 1916/2012 VRB03KT P6SM VCFG FEW004
      TEMPO 1916/1917 1/4SM FG OVC001
     FM191800 VRB03KT P6SM SKC
     FM192000 02008KT P6SM FEW250
     FM200200 05003KT P6SM SCT250=



000
FTUS45 KTWC 191500 AAA
TAFOLS
TAF AMD
KOLS 191519Z 1915/2012 VRB03KT P6SM VCFG FEW004
      TEMPO 1915/1916 1/2SM FG OVC001
     FM191700 VRB03KT P6SM SKC
     FM192000 02008KT P6SM FEW250
     FM200200 05003KT P6SM SCT250=



000
FTUS45 KTWC 191500 AAA
TAFOLS
TAF AMD
KOLS 191519Z 1915/2012 VRB03KT P6SM VCFG FEW004
      TEMPO 1915/1916 1/2SM FG OVC001
     FM191700 VRB03KT P6SM SKC
     FM192000 02008KT P6SM FEW250
     FM200200 05003KT P6SM SCT250=



000
FTUS45 KTWC 191400 AAB
TAFDUG
TAF AMD
KDUG 191420Z 1914/2012 VRB03KT P6SM VCFG FEW001
      TEMPO 1914/1915 1/2SM FZFG OVC001
     FM191500 VRB03KT P6SM SCT015
     FM191700 04005KT P6SM FEW030
     FM200200 03004KT P6SM SKC=



000
FTUS45 KTWC 191300 AAA
TAFDUG
TAF AMD
KDUG 191319Z 1913/2012 VRB03KT P6SM FEW001
      TEMPO 1913/1915 5SM BR SCT005
     FM191500 VRB03KT P6SM SCT015
     FM191700 04005KT P6SM FEW030
     FM200200 03004KT P6SM SKC=



000
FTUS45 KTWC 191100
TAFDUG
TAF
KDUG 191124Z 1912/2012 VRB03KT 1/4SM FZFG VV001
      TEMPO 1912/1915 1SM BR BKN005
     FM191500 VRB03KT 5SM BR BKN015
     FM191700 04005KT P6SM FEW030
     FM200200 03004KT P6SM SKC=



000
FTUS45 KTWC 191100
TAFOLS
TAF
KOLS 191124Z 1912/2012 VRB03KT 1/4SM FG VV002
      TEMPO 1912/1915 1SM BR BKN007
     FM191500 VRB03KT 5SM BR SCT020
     FM192000 02008KT P6SM FEW250
     FM200200 05003KT P6SM SCT250=



000
FTUS45 KTWC 191100
TAFOLS
TAF
KOLS 191124Z 1912/2012 VRB03KT 1/4SM FG VV002
      TEMPO 1912/1915 1SM BR BKN007
     FM191500 VRB03KT 5SM BR SCT020
     FM192000 02008KT P6SM FEW250
     FM200200 05003KT P6SM SCT250=



000
FTUS45 KTWC 191100
TAFTUS
TAF
KTUS 191124Z 1912/2012 16005KT P6SM SKC
     FM192000 35006KT P6SM FEW250
     FM200200 VRB03KT P6SM SCT250
     FM200800 15005KT P6SM SCT250=



000
FTUS45 KTWC 191000 AAD
TAFDUG
TAF AMD
KDUG 191046Z 1911/2006 VRB03KT 5SM BR BKN005
      TEMPO 1911/1914 1/4SM FG BKN001
     FM191400 VRB03KT 5SM BR BKN015
     FM191700 04005KT P6SM FEW020 SCT050=



000
FTUS45 KTWC 191000 AAC
TAFDUG
TAF AMD
KDUG 191026Z 1910/2006 VRB03KT P6SM SCT001
      TEMPO 1910/1914 5SM BR BKN001
     FM191400 VRB03KT 5SM BR SCT001
     FM191500 04005KT P6SM FEW020 SCT050=



000
FTUS45 KTWC 191000 AAC
TAFDUG
TAF AMD
KDUG 191026Z 1910/2006 VRB03KT P6SM SCT001
      TEMPO 1910/1914 5SM BR BKN001
     FM191400 VRB03KT 5SM BR SCT001
     FM191500 04005KT P6SM FEW020 SCT050=



000
FTUS45 KTWC 190900 AAB
TAFOLS
TAF AMD
KOLS 190939Z 1910/2006 VRB03KT P6SM SCT005
      TEMPO 1910/1914 1/2SM FG BKN002
     FM191400 VRB03KT 5SM BR SCT005
     FM192000 02008KT P6SM SCT250=



000
FTUS45 KTWC 190900 AAB
TAFOLS
TAF AMD
KOLS 190939Z 1910/2006 VRB03KT P6SM SCT005
      TEMPO 1910/1914 1/2SM FG BKN002
     FM191400 VRB03KT 5SM BR SCT005
     FM192000 02008KT P6SM SCT250=



000
FTUS45 KTWC 190900 AAB
TAFDUG
TAF AMD
KDUG 190915Z 1909/2006 VRB03KT P6SM FEW001
      TEMPO 1909/1913 5SM BR SCT001
     FM191300 VRB03KT 5SM BR SCT001
     FM191500 04005KT P6SM FEW020 SCT050=



000
FTUS45 KTWC 190800 AAA
TAFDUG
TAF AMD
KDUG 190844Z 1909/2006 VRB03KT 5SM BR FEW002
      TEMPO 1909/1913 1SM BR SCT001
     FM191300 VRB03KT 5SM BR SCT001
     FM191500 04005KT P6SM FEW020 SCT050=



000
FTUS45 KTWC 190800 AAA
TAFOLS
TAF AMD
KOLS 190840Z 1909/2006 VRB03KT P6SM SCT005
      TEMPO 1909/1911 BKN003
     FM191100 VRB03KT 5SM BR SCT005
     FM192000 02008KT P6SM SCT250=



000
FTUS45 KTWC 190800 AAA
TAFOLS
TAF AMD
KOLS 190840Z 1909/2006 VRB03KT P6SM SCT005
      TEMPO 1909/1911 BKN003
     FM191100 VRB03KT 5SM BR SCT005
     FM192000 02008KT P6SM SCT250=



000
FTUS45 KTWC 190500
TAFOLS
TAF
KOLS 190520Z 1906/2006 07006KT P6SM SKC
     FM190800 VRB03KT P6SM SKC
     FM192000 02008KT P6SM SCT250=



000
FTUS45 KTWC 190500
TAFTUS
TAF
KTUS 190520Z 1906/2006 20004KT P6SM SKC
     FM190700 14007KT P6SM SKC
     FM192000 35010KT P6SM SCT250=



000
FTUS45 KTWC 190500
TAFDUG
TAF
KDUG 190520Z 1906/2006 32007KT P6SM FEW050
     FM191000 VRB03KT 2SM BR FEW015
     FM191500 04005KT P6SM FEW020 SCT050=



000
FTUS45 KTWC 190500
TAFOLS
TAF
KOLS 190520Z 1906/2006 07006KT P6SM SKC
     FM190800 VRB03KT P6SM SKC
     FM192000 02008KT P6SM SCT250=



000
FTUS45 KTWC 190200 AAA
TAFOLS
TAF AMD
KOLS 190202Z 1902/1924 04005KT P6SM FEW040
     FM190400 VRB03KT P6SM SKC
     FM192000 02008KT P6SM SCT250=



000
FTUS45 KTWC 190200 AAA
TAFOLS
TAF AMD
KOLS 190202Z 1902/1924 04005KT P6SM FEW040
     FM190400 VRB03KT P6SM SKC
     FM192000 02008KT P6SM SCT250=



000
FTUS45 KTWC 190200 AAA
TAFTUS
TAF AMD
KTUS 190201Z 1902/1924 VRB03KT P6SM SKC
     FM190600 14007KT P6SM SKC
     FM192000 35010KT P6SM SCT250=



000
FTUS45 KTWC 182300
TAFOLS
TAF
KOLS 182335Z 1900/1924 01005KT P6SM BKN040
     FM190200 36004KT P6SM SCT040
     FM190600 VRB03KT P6SM FEW050
     FM192000 02008KT P6SM SCT250=



000
FTUS45 KTWC 182300
TAFDUG
TAF
KDUG 182335Z 1900/1924 35010KT P6SM VCSH BKN035 BKN050
     FM190200 02007KT P6SM SCT035 BKN050
     FM190500 VRB04KT P6SM SCT050
     FM191000 VRB03KT 2SM BR FEW010 SCT020 SCT050
     FM191500 04005KT P6SM FEW020 SCT050=



000
FTUS45 KTWC 182300
TAFTUS
TAF
KTUS 182335Z 1900/1924 35010KT P6SM SCT050
     FM190300 VRB03KT P6SM SCT060
     FM190600 14007KT P6SM FEW060
     FM192000 35010KT P6SM SCT250=



000
FTUS45 KTWC 182300
TAFOLS
TAF
KOLS 182335Z 1900/1924 01005KT P6SM BKN040
     FM190200 36004KT P6SM SCT040
     FM190600 VRB03KT P6SM FEW050
     FM192000 02008KT P6SM SCT250=



000
FTUS45 KTWC 182100 AAA
TAFOLS
TAF AMD
KOLS 182111Z 1821/1918 29009KT P6SM VCSH BKN035 OVC070
      TEMPO 1821/1823 2SM RA
     FM190200 36004KT P6SM SCT040 BKN100
     FM190900 VRB03KT P6SM SCT150=



000
FTUS45 KTWC 181700
TAFTUS
TAF
KTUS 181732Z 1818/1918 25006KT P6SM VCSH BKN035 OVC050
     FM182200 32007KT P6SM SCT050 BKN100
     FM190800 15005KT P6SM SCT150=



000
FTUS45 KTWC 181700
TAFOLS
TAF
KOLS 181732Z 1818/1918 29009KT P6SM VCSH BKN035 OVC070
     FM190200 36004KT P6SM SCT040 BKN100
     FM190900 VRB03KT P6SM SCT150=



000
FTUS45 KTWC 181700
TAFDUG
TAF
KDUG 181732Z 1818/1918 27007KT P6SM VCSH BKN035 BKN060
     FM190100 35006KT P6SM VCSH SCT035 BKN070
     FM190500 VRB04KT P6SM SCT050 SCT120
     FM191100 VRB03KT 2SM BR SCT020=



000
FTUS45 KTWC 181700
TAFOLS
TAF
KOLS 181732Z 1818/1918 29009KT P6SM VCSH BKN035 OVC070
     FM190200 36004KT P6SM SCT040 BKN100
     FM190900 VRB03KT P6SM SCT150=



    US Dept of Commerce
    National Oceanic and Atmospheric Administration
    National Weather Service
    1325 East West Highway
    Silver Spring, MD 20910
    Page Author: NWS Internet Services Team
Disclaimer
Information Quality
Credits
Glossary
Privacy Policy
Freedom of Information Act (FOIA)
About Us
Career Opportunities